createdAt,value
2022-08-07T00:04:16.850Z,89.22
2022-08-07T00:09:24.050Z,89.6
2022-08-07T00:14:32.246Z,89.56
2022-08-07T00:19:39.074Z,89.94
2022-08-07T00:24:47.925Z,90.02
2022-08-07T00:29:54.856Z,89.90001
2022-08-07T00:35:02.001Z,89.42
2022-08-07T00:40:09.478Z,89.16
2022-08-07T00:45:18.091Z,88.9
2022-08-07T00:50:25.498Z,88.57
2022-08-07T00:55:32.942Z,88.36
2022-08-07T01:00:40.497Z,88.07
2022-08-07T01:05:48.874Z,87.66001
2022-08-07T01:10:55.576Z,87.71
2022-08-07T01:16:03.914Z,87.42
2022-08-07T01:21:11.065Z,87.22
2022-08-07T01:26:34.928Z,86.88
2022-08-07T01:31:41.685Z,86.71
2022-08-07T01:36:49.373Z,86.91001
2022-08-07T01:41:57.978Z,86.43001
2022-08-07T01:47:06.162Z,86.77
2022-08-07T01:52:14.796Z,86.2
2022-08-07T01:57:21.499Z,86.04
2022-08-07T02:02:28.703Z,86.1
2022-08-07T02:09:07.664Z,86.8
2022-08-07T02:14:14.128Z,87.95
2022-08-07T02:19:22.252Z,88.56
2022-08-07T02:24:30.811Z,89.08999
2022-08-07T02:29:39.061Z,89.26001
2022-08-07T02:34:46.623Z,88.92
2022-08-07T02:39:53.210Z,88.52
2022-08-07T02:45:01.783Z,88.84
2022-08-07T02:50:08.862Z,88.51001
2022-08-07T02:55:21.819Z,87.86
2022-08-07T03:00:28.402Z,88.41001
2022-08-07T03:05:36.740Z,88.95
2022-08-07T03:10:44.076Z,89.62001
2022-08-07T03:15:53.050Z,89.66001
2022-08-07T03:21:01.130Z,90.14
2022-08-07T03:26:09.059Z,90.01
2022-08-07T03:31:17.336Z,89.26001
2022-08-07T03:36:25.328Z,89.1
2022-08-07T03:41:32.054Z,88.82
2022-08-07T03:46:39.512Z,88.68
2022-08-07T03:51:47.428Z,88.61
2022-08-07T03:56:54.611Z,88.44001
2022-08-07T04:02:02.436Z,88.61
2022-08-07T04:07:09.006Z,88.7
2022-08-07T04:12:16.855Z,88.56
2022-08-07T04:17:25.293Z,88.26
2022-08-07T04:22:33.359Z,87.80001
2022-08-07T04:27:40.339Z,87.08
2022-08-07T04:32:48.790Z,87.48
2022-08-07T04:37:57.275Z,86.86
2022-08-07T04:43:05.110Z,87.15
2022-08-07T04:48:12.794Z,86.84
2022-08-07T04:53:21.357Z,86.35
2022-08-07T04:58:28.724Z,86.57001
2022-08-07T05:03:37.690Z,86.04
2022-08-07T05:08:45.036Z,85.33999
2022-08-07T05:13:53.119Z,85.08
2022-08-07T05:19:00.483Z,85.22
2022-08-07T05:24:09.487Z,84.6
2022-08-07T05:29:17.035Z,85.2
2022-08-07T05:34:25.229Z,84.34
2022-08-07T05:39:34.095Z,84.52
2022-08-07T05:44:41.818Z,83.44001
2022-08-07T05:49:49.193Z,83.36
2022-08-07T05:54:57.874Z,83.83
2022-08-07T06:00:06.413Z,83.5
2022-08-07T06:05:13.461Z,82.85
2022-08-07T06:10:21.041Z,83.08001
2022-08-07T06:15:29.646Z,82.47001
2022-08-07T06:20:36.054Z,82.66001
2022-08-07T06:25:43.903Z,81.3
2022-08-07T06:30:52.884Z,81.06
2022-08-07T06:35:59.803Z,80.46
2022-08-07T06:41:08.127Z,79.95
2022-08-07T06:46:16.190Z,78.05
2022-08-07T06:51:24.154Z,77.38
2022-08-07T06:56:32.381Z,77.56
2022-08-07T07:01:41.203Z,74.05
2022-08-07T07:06:48.978Z,70.96
2022-08-07T07:11:56.647Z,67.54
2022-08-07T07:17:06.065Z,65.94
2022-08-07T07:22:12.689Z,63.79
2022-08-07T07:27:21.043Z,62.33
2022-08-07T07:32:42.746Z,65.02
2022-08-07T07:38:02.836Z,62.87
2022-08-07T07:43:11.637Z,63.85
2022-08-07T07:48:21.279Z,63.57
2022-08-07T07:53:29.203Z,63.05
2022-08-07T07:58:37.019Z,62.62
2022-08-07T08:03:44.858Z,63.39
2022-08-07T08:08:52.103Z,62.92
2022-08-07T08:13:59.750Z,61.73
2022-08-07T08:19:07.806Z,61.16
2022-08-07T08:24:15.775Z,57.72
2022-08-07T08:29:23.755Z,57.58
2022-08-07T08:34:31.294Z,57.6
2022-08-07T08:39:39.728Z,57.57
2022-08-07T08:44:47.626Z,56.57
2022-08-07T08:49:55.835Z,55.57
2022-08-07T08:55:02.754Z,57.92
2022-08-07T09:00:10.935Z,53.75
2022-08-07T09:05:20.084Z,54.89
2022-08-07T09:10:27.448Z,52.94
2022-08-07T09:15:35.979Z,54.15
2022-08-07T09:20:49.688Z,52.75
2022-08-07T09:25:57.343Z,50.0
2022-08-07T09:31:04.143Z,49.97
2022-08-07T09:36:13.047Z,49.2
2022-08-07T09:41:21.962Z,48.37
2022-08-07T09:46:29.343Z,48.22
2022-08-07T09:51:37.693Z,48.96
2022-08-07T09:56:44.383Z,49.4
2022-08-07T10:01:52.729Z,49.92
2022-08-07T10:07:01.451Z,49.61
2022-08-07T10:12:09.240Z,49.6
2022-08-07T10:17:17.293Z,52.36
2022-08-07T10:22:25.725Z,50.16
2022-08-07T10:27:32.959Z,49.31
2022-08-07T10:32:39.923Z,49.64
2022-08-07T10:37:47.900Z,52.05
2022-08-07T10:42:55.659Z,50.73
2022-08-07T10:48:02.763Z,51.0
2022-08-07T10:53:10.072Z,52.5
2022-08-07T10:58:17.962Z,48.94
2022-08-07T11:03:24.377Z,47.88
2022-08-07T11:08:32.737Z,51.98
2022-08-07T11:13:39.638Z,47.99
2022-08-07T11:18:47.641Z,47.51
2022-08-07T11:23:53.818Z,48.78
2022-08-07T11:29:01.478Z,46.47
2022-08-07T11:34:08.831Z,46.72
2022-08-07T11:39:16.725Z,47.71
2022-08-07T11:44:24.316Z,47.55
2022-08-07T11:49:37.496Z,47.25
2022-08-07T11:54:45.529Z,47.05
2022-08-07T11:59:52.602Z,47.74
2022-08-07T12:05:00.371Z,47.34
2022-08-07T12:10:08.186Z,46.78
2022-08-07T12:15:16.781Z,48.62
2022-08-07T12:20:24.940Z,47.27
2022-08-07T12:25:34.171Z,46.91
2022-08-07T12:30:41.497Z,49.5
2022-08-07T12:35:54.420Z,45.9
2022-08-07T12:41:00.378Z,46.75
2022-08-07T12:46:08.153Z,45.66
2022-08-07T12:51:15.353Z,48.03
2022-08-07T12:56:23.238Z,47.54
2022-08-07T13:01:31.318Z,46.43
2022-08-07T13:06:38.468Z,47.88
2022-08-07T13:11:45.531Z,47.88
2022-08-07T13:16:53.385Z,49.23
2022-08-07T13:22:01.244Z,49.72
2022-08-07T13:27:09.040Z,47.59
2022-08-07T13:32:16.729Z,47.28
2022-08-07T13:37:24.693Z,49.06
2022-08-07T13:42:33.690Z,48.06
2022-08-07T13:47:41.308Z,48.4
2022-08-07T13:52:47.583Z,48.76
2022-08-07T13:57:55.738Z,49.24
2022-08-07T14:03:02.883Z,46.27
2022-08-07T14:08:10.101Z,45.62
2022-08-07T14:13:17.697Z,47.55
2022-08-07T14:18:25.287Z,49.12
2022-08-07T14:23:32.732Z,48.38
2022-08-07T14:28:40.597Z,46.42
2022-08-07T14:33:46.493Z,48.47
2022-08-07T14:39:02.157Z,48.71
2022-08-07T14:44:09.178Z,47.95
2022-08-07T14:49:17.636Z,49.56
2022-08-07T14:54:24.505Z,49.86
2022-08-07T14:59:32.064Z,48.46
2022-08-07T15:04:39.329Z,48.7
2022-08-07T15:09:47.131Z,53.86
2022-08-07T15:14:55.443Z,49.74
2022-08-07T15:20:03.417Z,48.88
2022-08-07T15:25:11.278Z,51.24
2022-08-07T15:30:19.034Z,50.22
2022-08-07T15:35:26.300Z,51.73
2022-08-07T15:40:33.890Z,50.89
2022-08-07T15:45:41.460Z,52.13
2022-08-07T15:50:49.591Z,53.38
2022-08-07T15:55:57.697Z,51.82
2022-08-07T16:01:06.544Z,52.43
2022-08-07T16:06:15.641Z,53.65
2022-08-07T16:11:22.942Z,54.35
2022-08-07T16:16:38.020Z,54.18
2022-08-07T16:21:45.590Z,56.22
2022-08-07T16:26:53.748Z,57.76
2022-08-07T16:32:00.731Z,56.93
2022-08-07T16:37:08.902Z,57.92
2022-08-07T16:42:16.821Z,58.27
2022-08-07T16:47:23.741Z,57.83
2022-08-07T16:52:31.542Z,57.89
2022-08-07T16:57:38.136Z,58.56
2022-08-07T17:02:45.336Z,59.52
2022-08-07T17:07:52.588Z,60.48
2022-08-07T17:12:59.106Z,59.9
2022-08-07T17:18:07.261Z,60.19
2022-08-07T17:23:15.617Z,60.32
2022-08-07T17:28:23.265Z,61.3
2022-08-07T17:33:30.392Z,62.41
2022-08-07T17:38:38.166Z,63.14
2022-08-07T17:43:46.375Z,64.31
2022-08-07T17:48:53.334Z,64.56
2022-08-07T17:54:02.061Z,64.52
2022-08-07T17:59:10.018Z,64.69
2022-08-07T18:04:26.325Z,65.34
2022-08-07T18:09:33.017Z,66.11
2022-08-07T18:14:40.597Z,66.58
2022-08-07T18:19:49.133Z,67.23001
2022-08-07T18:24:58.326Z,67.72
2022-08-07T18:30:06.254Z,68.63
2022-08-07T18:35:14.117Z,69.24
2022-08-07T18:40:21.335Z,70.21
2022-08-07T18:45:29.176Z,70.44
2022-08-07T18:50:36.458Z,70.62
2022-08-07T18:55:58.941Z,71.16001
2022-08-07T19:01:05.499Z,70.89
2022-08-07T19:06:13.298Z,71.66
2022-08-07T19:11:20.839Z,72.48001
2022-08-07T19:16:28.384Z,72.56
2022-08-07T19:21:36.445Z,72.93
2022-08-07T19:26:43.794Z,73.48001
2022-08-07T19:31:53.174Z,74.48
2022-08-07T19:37:00.985Z,74.86
2022-08-07T19:42:08.861Z,75.62
2022-08-07T19:47:16.487Z,76.07
2022-08-07T19:52:26.391Z,77.08
2022-08-07T19:57:33.658Z,77.66
2022-08-07T20:02:42.235Z,78.79
2022-08-07T20:07:50.099Z,78.22
2022-08-07T20:12:58.207Z,78.17
2022-08-07T20:18:06.291Z,78.81
2022-08-07T20:23:12.887Z,78.77
2022-08-07T20:28:21.203Z,78.81
2022-08-07T20:33:28.550Z,80.16001
2022-08-07T20:38:37.081Z,79.6
2022-08-07T20:43:45.354Z,80.16001
2022-08-07T20:48:52.578Z,79.69
2022-08-07T20:54:01.623Z,80.33
2022-08-07T20:59:16.887Z,79.88
2022-08-07T21:04:23.837Z,79.85
2022-08-07T21:09:32.064Z,79.84
2022-08-07T21:14:39.565Z,80.31
2022-08-07T21:19:46.141Z,81.44
2022-08-07T21:24:53.705Z,80.97
2022-08-07T21:30:01.645Z,81.25
2022-08-07T21:35:09.642Z,81.56
2022-08-07T21:40:17.497Z,81.66
2022-08-07T21:45:24.097Z,82.05001
2022-08-07T21:50:33.160Z,83.05
2022-08-07T21:55:40.378Z,83.03
2022-08-07T22:00:47.788Z,83.74
2022-08-07T22:05:55.414Z,82.98
2022-08-07T22:11:03.687Z,83.29
2022-08-07T22:16:11.845Z,83.31
2022-08-07T22:21:20.022Z,82.81
2022-08-07T22:26:27.925Z,83.18
2022-08-07T22:31:35.449Z,82.5
2022-08-07T22:36:42.451Z,83.35
2022-08-07T22:41:50.091Z,83.09
2022-08-07T22:46:59.278Z,82.83999
2022-08-07T22:52:06.280Z,82.93
2022-08-07T22:57:14.815Z,83.1
2022-08-07T23:02:22.409Z,83.27
2022-08-07T23:07:30.474Z,83.68
2022-08-07T23:12:37.336Z,84.59
2022-08-07T23:17:43.928Z,84.19001
2022-08-07T23:22:51.725Z,84.19001
2022-08-07T23:27:58.941Z,83.18
2022-08-07T23:33:06.777Z,83.21
2022-08-07T23:38:14.649Z,83.22001
2022-08-07T23:43:22.391Z,83.91001
2022-08-07T23:48:30.283Z,83.84
2022-08-07T23:53:37.833Z,83.72001
2022-08-07T23:58:45.627Z,83.99
